Parkland, Washington
Current Conditions -  °F | °C
As of 5:58 AM on Friday 28 Nov 2014 (Local Time) from KTCM Reporting Station
Overcast Overcast  
Wind Chill: 55°   Ceiling: 7500
Heat Index: 55°   Visibility: 10mi
Dew Point: 51°   Wind: 17mph
Humidity: 87%   Direction: 200°SSW
Pressure: 29.58"   Gusts: NA
Location:  47.16°N, 122.43°W
Report Text: KTCM 281358Z AUTO 20015KT 10SM FEW048 SCT060 BKN075 OVC090 13/10 A2958 RMK AO2 RAB1305E1315 SLP020 P0000 T01250104 $
Loading
Personal Weather Stations






























Interactive Weather Map New forecast layout! Learn more

10-Day Weather Forecast

Advertisements
Track Severe Weather on mobile